Time;durP1;ratioP1;P1;durP2;ratioP2;P2;SDS_P1;SDS_P2;PMS_P1;PMS_P2;Temp;Humidity;BMP_temperature;BMP_pressure;BME280_temperature;BME280_humidity;BME280_pressure;Samples;Min_cycle;Max_cycle;Signal;HPM_P1;HPM_P2
2022/08/18 00:02:20;;;;;;;4.68;1.83;;;;;;;27.47;41.61;101328.59;5053675;28;20099;-48
2022/08/18 00:04:49;;;;;;;4.63;1.98;;;;;;;27.43;41.48;101318.00;5053786;28;20028;-52
2022/08/18 00:07:21;;;;;;;5.20;1.90;;;;;;;27.45;41.56;101312.72;5071556;28;20062;-51
2022/08/18 00:09:50;;;;;;;4.40;1.58;;;;;;;27.39;41.49;101305.69;5072706;28;20033;-51
2022/08/18 00:12:22;;;;;;;5.13;1.50;;;;;;;27.52;41.33;101322.47;5075544;28;20509;-50
2022/08/18 00:14:50;;;;;;;5.57;1.65;;;;;;;27.49;41.42;101326.81;5075469;28;20074;-48
2022/08/18 00:17:19;;;;;;;4.40;1.60;;;;;;;27.46;41.55;101319.78;5075530;28;20375;-52
2022/08/18 00:19:49;;;;;;;6.20;1.80;;;;;;;27.51;41.43;101318.06;5074977;28;20025;-51
2022/08/18 00:22:19;;;;;;;5.43;1.73;;;;;;;27.52;41.53;101321.56;5075132;28;20115;-52
2022/08/18 00:24:51;;;;;;;2.33;1.45;;;;;;;27.51;41.51;101319.81;5057557;28;20028;-48
2022/08/18 00:27:21;;;;;;;4.60;1.60;;;;;;;27.45;41.54;101315.38;5074928;28;20492;-49
2022/08/18 00:29:50;;;;;;;4.63;1.63;;;;;;;27.39;41.56;101317.97;5075129;28;20428;-49
2022/08/18 00:32:27;;;;;;;3.95;1.80;;;;;;;27.41;41.48;101314.47;5074831;28;20021;-50
2022/08/18 00:34:57;;;;;;;5.68;1.75;;;;;;;27.48;41.39;101322.41;5074711;28;20063;-48
2022/08/18 00:37:37;;;;;;;;;;;;;;;;;;;;;
2022/08/18 00:53:57;;;;;;;4.97;1.50;;;;;;;27.35;41.68;101330.25;5065983;28;20059;-52
2022/08/18 00:56:32;;;;;;;3.33;1.30;;;;;;;27.39;41.58;101324.13;5074708;28;20029;-47
2022/08/18 00:59:09;;;;;;;3.88;2.08;;;;;;;27.28;41.62;101305.63;5074789;28;20024;-50
2022/08/18 01:01:39;;;;;;;3.20;1.45;;;;;;;27.34;41.65;101325.84;5074208;28;20174;-48
2022/08/18 01:04:23;;;;;;;6.25;1.77;;;;;;;27.41;41.65;101332.94;5056827;28;20024;-51
2022/08/18 01:06:55;;;;;;;7.03;1.75;;;;;;;27.37;41.76;101323.25;5074302;28;20025;-52
2022/08/18 01:09:23;;;;;;;5.10;1.65;;;;;;;27.33;41.77;101310.06;5056537;28;20039;-51
2022/08/18 01:11:52;;;;;;;3.80;1.70;;;;;;;27.39;41.34;101313.59;5074127;28;20487;-50
2022/08/18 01:14:21;;;;;;;4.35;1.65;;;;;;;27.33;41.58;101315.31;5056623;28;20033;-48
2022/08/18 01:22:39;;;;;;;5.32;1.80;;;;;;;27.27;41.91;101318.81;5052210;28;20028;-50
2022/08/18 01:27:56;;;;;;;2.78;1.10;;;;;;;27.30;41.80;101327.59;5066277;28;20047;-52
2022/08/18 01:30:25;;;;;;;7.28;1.98;;;;;;;27.28;41.78;101326.72;5074131;28;20025;-48
2022/08/18 01:32:54;;;;;;;3.97;1.55;;;;;;;27.28;42.16;101333.75;5073975;28;20021;-51
2022/08/18 01:35:25;;;;;;;3.42;1.48;;;;;;;27.17;41.89;101309.97;5073649;28;20032;-51
2022/08/18 01:37:54;;;;;;;5.00;1.73;;;;;;;27.20;41.93;101324.91;5056085;28;20047;-51
2022/08/18 01:40:24;;;;;;;4.90;1.58;;;;;;;27.21;41.88;101321.41;5039395;28;20468;-48
2022/08/18 01:42:55;;;;;;;2.72;1.40;;;;;;;27.29;41.99;101330.25;5073873;28;20024;-52
2022/08/18 01:45:24;;;;;;;6.30;1.90;;;;;;;27.25;41.74;101317.91;5073652;28;20533;-51
2022/08/18 01:47:52;;;;;;;3.47;1.65;;;;;;;27.18;42.12;101308.22;5073746;28;20024;-52
2022/08/18 01:50:21;;;;;;;5.13;1.42;;;;;;;27.28;41.83;101334.63;5073440;28;20985;-51
2022/08/18 01:52:52;;;;;;;7.05;1.80;;;;;;;27.21;41.97;101326.69;5055548;28;20061;-51
2022/08/18 01:55:21;;;;;;;5.45;2.10;;;;;;;27.18;41.84;101318.75;5073410;28;20051;-49
2022/08/18 01:57:50;;;;;;;4.28;1.63;;;;;;;27.25;41.92;101324.06;5073265;28;20025;-50
2022/08/18 02:00:19;;;;;;;3.80;1.60;;;;;;;27.18;42.24;101322.28;5073454;28;20056;-50
2022/08/18 02:02:48;;;;;;;5.03;1.55;;;;;;;27.24;41.97;101331.97;5055857;28;20031;-51
2022/08/18 02:05:20;;;;;;;4.25;1.60;;;;;;;27.19;42.14;101331.06;5055337;28;20040;-52
2022/08/18 02:07:48;;;;;;;3.20;1.33;;;;;;;27.18;42.03;101326.66;5072905;28;20093;-51
2022/08/18 02:10:18;;;;;;;3.95;1.33;;;;;;;27.17;42.15;101330.16;5072625;28;20502;-51
2022/08/18 02:12:47;;;;;;;4.53;1.73;;;;;;;27.23;41.97;101325.78;5072797;28;20032;-48
2022/08/18 02:15:16;;;;;;;4.10;1.50;;;;;;;27.17;41.87;101324.88;5072990;28;20115;-48
2022/08/18 02:17:46;;;;;;;4.55;1.77;;;;;;;27.09;42.08;101316.94;5073119;28;20028;-48
2022/08/18 02:20:17;;;;;;;5.55;1.90;;;;;;;27.11;41.85;101320.47;5072793;28;20101;-48
2022/08/18 02:22:47;;;;;;;4.10;1.60;;;;;;;27.21;41.89;101329.31;5055293;28;20032;-50
2022/08/18 02:25:17;;;;;;;4.95;2.15;;;;;;;27.26;41.87;101324.94;5072892;28;20032;-47
2022/08/18 02:27:47;;;;;;;4.93;1.60;;;;;;;27.21;42.03;101317.03;5073037;28;20480;-50
2022/08/18 02:30:17;;;;;;;4.85;1.70;;;;;;;27.21;41.86;101318.78;5072979;28;20482;-50
2022/08/18 02:32:47;;;;;;;5.10;1.75;;;;;;;27.21;42.03;101327.56;5072807;28;20097;-52
2022/08/18 02:35:15;;;;;;;2.40;1.35;;;;;;;27.21;41.92;101329.31;5072650;28;20467;-48
2022/08/18 02:37:46;;;;;;;4.53;1.73;;;;;;;27.14;41.86;101323.13;5055115;28;20104;-51
2022/08/18 02:40:16;;;;;;;4.68;1.48;;;;;;;27.18;41.82;101322.28;5073133;28;20021;-51
2022/08/18 02:42:45;;;;;;;2.60;1.35;;;;;;;27.21;41.78;101321.41;5072432;28;20036;-52
2022/08/18 02:45:14;;;;;;;5.85;1.60;;;;;;;27.18;41.84;101321.38;5072369;28;20036;-48
2022/08/18 02:47:43;;;;;;;4.85;1.60;;;;;;;27.22;41.68;101324.03;5054860;28;20029;-52
2022/08/18 02:50:13;;;;;;;5.50;1.95;;;;;;;27.09;41.95;101304.69;5072728;28;20036;-48
2022/08/18 02:52:41;;;;;;;3.75;1.55;;;;;;;27.11;41.90;101312.56;5072466;28;20063;-52
2022/08/18 02:55:10;;;;;;;4.53;1.55;;;;;;;27.16;41.73;101308.22;5054256;28;20499;-49
2022/08/18 02:57:45;;;;;;;4.95;1.45;;;;;;;27.24;41.54;101306.50;5072586;28;20102;-48
2022/08/18 03:00:14;;;;;;;;;;;;;;;27.30;41.47;101309.16;5073150;28;20024;-48
2022/08/18 03:02:53;;;;;;;4.88;1.90;;;;;;;27.27;41.45;101303.88;5072202;28;19913;-48
2022/08/18 03:05:22;;;;;;;5.25;2.15;;;;;;;27.26;41.40;101309.16;5072225;28;20056;-52
2022/08/18 03:07:50;;;;;;;4.82;1.85;;;;;;;27.24;41.61;101308.25;5072245;28;20024;-51
2022/08/18 03:10:19;;;;;;;6.15;2.13;;;;;;;27.12;41.84;101301.16;5072300;28;20475;-49
2022/08/18 03:12:47;;;;;;;7.25;1.70;;;;;;;27.07;41.86;101298.53;5071907;28;20047;-49
2022/08/18 03:15:16;;;;;;;4.22;1.88;;;;;;;27.07;41.81;101292.34;5072312;28;20024;-52
2022/08/18 03:17:44;;;;;;;3.05;1.42;;;;;;;27.14;41.89;101299.44;5072314;28;20104;-49
2022/08/18 03:20:13;;;;;;;4.03;1.98;;;;;;;27.11;41.82;101304.69;5071852;28;20021;-50
2022/08/18 03:22:42;;;;;;;7.82;2.05;;;;;;;27.12;41.70;101304.69;5071964;28;20048;-52
2022/08/18 03:25:10;;;;;;;3.88;1.63;;;;;;;27.12;41.70;101319.59;5072055;28;20115;-50
2022/08/18 03:27:39;;;;;;;5.93;1.63;;;;;;;27.04;42.09;101330.09;5072145;28;20032;-50
2022/08/18 03:30:07;;;;;;;5.65;2.35;;;;;;;27.08;41.88;101320.47;5071596;28;20024;-48
2022/08/18 03:32:36;;;;;;;5.93;2.17;;;;;;;27.04;41.85;101327.47;5054397;28;20031;-51
2022/08/18 03:35:05;;;;;;;5.07;1.85;;;;;;;26.97;42.02;101323.91;5071812;28;20028;-51
2022/08/18 03:37:34;;;;;;;5.68;1.70;;;;;;;27.01;42.06;101327.44;5072101;28;20028;-51
2022/08/18 03:40:03;;;;;;;3.85;1.50;;;;;;;27.04;41.74;101313.44;5071983;28;20034;-51
2022/08/18 03:42:31;;;;;;;7.13;1.90;;;;;;;27.04;41.72;101310.81;5071732;28;20029;-52
2022/08/18 03:45:00;;;;;;;6.55;2.22;;;;;;;27.06;41.82;101320.47;5073122;28;20475;-51
2022/08/18 03:47:28;;;;;;;7.63;1.63;;;;;;;27.01;41.63;101319.53;5075530;28;20028;-50
2022/08/18 03:49:58;;;;;;;5.63;2.13;;;;;;;26.96;41.97;101314.25;5075650;28;20044;-52
2022/08/18 03:52:27;;;;;;;5.90;1.98;;;;;;;26.94;41.92;101318.63;5075692;28;20475;-49
2022/08/18 03:54:55;;;;;;;4.60;2.22;;;;;;;27.03;41.65;101312.53;5075594;28;20509;-50
2022/08/18 03:57:24;;;;;;;5.22;1.70;;;;;;;26.97;41.86;101320.41;5075685;28;20028;-52
2022/08/18 03:59:53;;;;;;;8.10;2.22;;;;;;;26.99;41.92;101324.81;5058172;28;20490;-49
2022/08/18 04:02:22;;;;;;;6.00;2.10;;;;;;;26.97;41.93;101326.56;5075791;28;20395;-52
2022/08/18 04:04:51;;;;;;;3.47;1.95;;;;;;;27.01;41.74;101323.94;5057261;28;20028;-47
2022/08/18 04:07:19;;;;;;;4.68;1.75;;;;;;;26.99;41.73;101316.91;5075366;28;20489;-48
2022/08/18 04:09:48;;;;;;;4.47;1.98;;;;;;;27.02;41.59;101310.78;5075367;28;20035;-49
2022/08/18 04:12:17;;;;;;;4.05;1.60;;;;;;;27.01;41.67;101306.38;5075548;28;20028;-51
2022/08/18 04:14:47;;;;;;;3.33;1.80;;;;;;;27.05;41.51;101318.69;5057850;28;20025;-52
2022/08/18 04:17:16;;;;;;;5.68;2.40;;;;;;;26.99;41.45;101318.66;5057689;28;20516;-48
2022/08/18 04:19:45;;;;;;;4.10;1.48;;;;;;;26.95;41.80;101320.38;5074877;28;20020;-47
2022/08/18 04:22:15;;;;;;;4.18;1.73;;;;;;;27.02;41.75;101315.19;5074899;28;20021;-47
2022/08/18 04:24:44;;;;;;;5.88;1.90;;;;;;;27.02;41.67;101323.06;5075547;28;20019;-48
2022/08/18 04:27:12;;;;;;;3.40;1.73;;;;;;;26.88;41.85;101315.09;5075199;28;20024;-51
2022/08/18 04:29:41;;;;;;;4.57;1.80;;;;;;;26.89;41.96;101319.47;5074677;28;20017;-49
2022/08/18 04:32:09;;;;;;;3.45;1.50;;;;;;;26.95;41.83;101322.16;5075203;28;20040;-51
2022/08/18 04:34:38;;;;;;;3.65;1.83;;;;;;;26.93;41.72;101316.88;5056722;28;20024;-52
2022/08/18 04:37:08;;;;;;;5.65;2.33;;;;;;;26.86;41.84;101317.72;5074858;28;20052;-47
2022/08/18 04:39:37;;;;;;;5.03;1.50;;;;;;;26.93;41.73;101310.72;5074768;28;20042;-47
2022/08/18 04:42:05;;;;;;;5.43;2.20;;;;;;;26.95;41.65;101315.13;5074824;28;20556;-48
2022/08/18 04:44:34;;;;;;;7.72;1.90;;;;;;;26.93;41.67;101314.22;5074806;28;20035;-47
2022/08/18 04:47:02;;;;;;;4.53;2.15;;;;;;;26.94;41.67;101323.03;5074857;28;20032;-48
2022/08/18 04:49:30;;;;;;;5.05;1.67;;;;;;;26.94;41.71;101321.25;5074686;28;20043;-49
2022/08/18 04:54:47;;;;;;;3.88;1.90;;;;;;;26.85;41.91;101323.84;5064064;28;20049;-48
2022/08/18 04:57:18;;;;;;;5.07;1.80;;;;;;;26.83;42.00;101325.59;5073207;28;20028;-47
2022/08/18 04:59:49;;;;;;;5.30;1.85;;;;;;;26.86;41.90;101327.34;5074824;28;20090;-51
2022/08/18 05:02:18;;;;;;;4.45;1.73;;;;;;;26.92;41.82;101327.41;5074538;28;20028;-49
2022/08/18 05:04:47;;;;;;;4.18;1.50;;;;;;;26.83;41.83;101321.19;5074771;28;20039;-48
2022/08/18 05:07:18;;;;;;;3.65;1.92;;;;;;;26.85;41.90;101321.22;5074007;28;20059;-48
2022/08/18 05:09:46;;;;;;;4.57;1.80;;;;;;;26.93;41.61;101319.50;5056818;28;20112;-50
2022/08/18 05:12:16;;;;;;;4.50;2.22;;;;;;;26.84;41.98;101322.94;5073938;28;20031;-48
2022/08/18 05:14:45;;;;;;;3.30;1.27;;;;;;;26.83;41.85;101318.56;5073713;28;20086;-48
2022/08/18 05:17:15;;;;;;;4.78;1.67;;;;;;;26.91;41.63;101328.28;5074121;28;20112;-49
2022/08/18 05:19:44;;;;;;;5.25;2.13;;;;;;;26.83;41.91;101326.44;5074041;28;20483;-47
2022/08/18 05:22:16;;;;;;;4.72;1.80;;;;;;;26.82;42.03;101329.09;5074042;28;20037;-48
2022/08/18 05:24:45;;;;;;;4.78;1.58;;;;;;;26.80;41.72;101321.19;5055979;28;20032;-47
2022/08/18 05:27:14;;;;;;;5.90;2.10;;;;;;;26.90;41.88;101337.03;5073725;28;20025;-51
2022/08/18 05:29:42;;;;;;;4.75;1.95;;;;;;;26.87;41.88;101339.63;5073828;28;20468;-48
2022/08/18 05:32:10;;;;;;;5.38;2.05;;;;;;;26.82;42.00;101343.13;5073888;28;20123;-47
2022/08/18 05:34:38;;;;;;;4.45;1.83;;;;;;;26.93;41.66;101348.47;5073725;28;20039;-48
2022/08/18 05:37:46;;;;;;;7.95;1.98;;;;;;;26.89;41.59;101354.56;5073431;28;20500;-47
2022/08/18 05:40:15;;;;;;;5.38;1.85;;;;;;;26.93;41.73;101353.72;5062877;28;20060;-50
2022/08/18 05:42:44;;;;;;;4.60;2.08;;;;;;;26.78;41.82;101335.16;5073449;28;20033;-48
2022/08/18 05:45:17;;;;;;;4.32;2.00;;;;;;;26.83;42.06;101359.81;5073499;28;20093;-50
2022/08/18 05:47:45;;;;;;;4.75;1.90;;;;;;;26.83;42.14;101363.31;5073663;28;20021;-48
2022/08/18 05:50:17;;;;;;;5.47;2.05;;;;;;;26.74;42.27;101357.97;5073456;28;20067;-48
2022/08/18 05:52:55;;;;;;;4.80;2.20;;;;;;;26.83;42.18;101378.22;5055463;28;20028;-50
2022/08/18 05:58:31;;;;;;;6.43;2.40;;;;;;;26.90;42.06;101392.31;5063337;28;20041;-48
2022/08/18 06:01:04;;;;;;;6.82;1.80;;;;;;;26.89;42.29;101385.28;5073320;28;20031;-48
2022/08/18 06:03:37;;;;;;;6.28;1.85;;;;;;;26.88;42.10;101394.06;5038830;28;20519;-49
2022/08/18 06:06:12;;;;;;;8.20;2.20;;;;;;;26.82;42.17;101387.00;5055481;28;20040;-47
2022/08/18 06:08:46;;;;;;;4.80;1.80;;;;;;;26.93;42.04;101392.34;5072842;28;20055;-49
2022/08/18 06:11:14;;;;;;;;;;;;;;;26.99;41.80;101395.91;5073512;28;20037;-48
2022/08/18 06:13:43;;;;;;;5.90;1.70;;;;;;;26.97;41.75;101407.31;5072880;28;20201;-48
2022/08/18 06:16:26;;;;;;;7.18;2.88;;;;;;;26.94;42.15;101404.63;5055282;28;20029;-48
2022/08/18 06:19:21;;;;;;;6.80;2.63;;;;;;;26.92;41.97;101404.59;5055263;28;20035;-48
2022/08/18 06:22:15;;;;;;;5.10;2.17;;;;;;;26.94;41.88;101412.53;5072885;28;20033;-48
2022/08/18 06:25:06;;;;;;;7.93;3.08;;;;;;;26.92;42.20;101414.28;5063794;28;20032;-47
2022/08/18 06:27:41;;;;;;;12.85;2.55;;;;;;;26.77;42.57;101410.63;5066757;28;20126;-48
2022/08/18 06:30:15;;;;;;;3.85;2.10;;;;;;;26.79;42.30;101415.88;5072675;28;20034;-49
2022/08/18 06:33:14;;;;;;;7.83;2.13;;;;;;;26.78;42.57;101414.13;5054689;28;20726;-48
2022/08/18 06:35:50;;;;;;;8.80;2.35;;;;;;;26.89;42.19;101409.84;5063490;28;20128;-49
2022/08/18 06:38:37;;;;;;;10.85;3.03;;;;;;;26.92;42.45;101414.28;5054782;28;20115;-49
2022/08/18 06:41:09;;;;;;;7.95;2.38;;;;;;;26.86;42.43;101419.47;5072349;28;20036;-50
2022/08/18 06:43:41;;;;;;;4.90;2.40;;;;;;;26.92;42.34;101422.19;5072736;28;20438;-49
2022/08/18 06:46:15;;;;;;;4.70;2.38;;;;;;;26.89;42.57;101407.22;5055072;28;20097;-48
2022/08/18 06:48:53;;;;;;;7.38;2.60;;;;;;;26.88;42.51;101407.22;5072748;28;20055;-48
2022/08/18 06:51:23;;;;;;;10.00;2.80;;;;;;;26.90;42.76;101410.75;5072670;28;20028;-47
2022/08/18 06:54:19;;;;;;;6.97;2.20;;;;;;;26.90;42.71;101410.75;5072150;28;20051;-50
2022/08/18 06:56:50;;;;;;;9.18;2.45;;;;;;;26.86;42.72;101415.13;5067914;28;20032;-48
2022/08/18 06:59:25;;;;;;;8.38;2.22;;;;;;;26.96;42.49;101421.34;5072383;28;20068;-47
2022/08/18 07:02:22;;;;;;;11.77;2.53;;;;;;;26.93;42.48;101416.91;5072261;28;20107;-48
2022/08/18 07:05:20;;;;;;;21.25;4.93;;;;;;;26.91;42.60;101429.16;5050694;28;20029;-50
2022/08/18 07:08:26;;;;;;;44.40;8.30;;;;;;;26.98;42.58;101430.09;5051179;28;20078;-49
2022/08/18 07:10:55;;;;;;;66.78;11.18;;;;;;;26.91;42.26;101415.16;5063166;28;20041;-49
2022/08/18 07:13:26;;;;;;;78.93;14.20;;;;;;;27.11;42.12;101431.97;5054263;28;20024;-49
2022/08/18 07:16:13;;;;;;;84.63;14.77;;;;;;;27.05;42.65;101431.91;5054164;28;20420;-52
2022/08/18 07:18:40;;;;;;;68.20;11.45;;;;;;;26.97;42.55;101431.00;5054005;28;20107;-53
2022/08/18 07:21:09;;;;;;;56.88;11.15;;;;;;;26.96;42.53;101434.50;5071382;28;20012;-52
2022/08/18 07:23:39;;;;;;;44.83;8.27;;;;;;;26.98;42.50;101435.38;5054406;28;20025;-48
2022/08/18 07:26:12;;;;;;;40.38;7.90;;;;;;;26.97;42.44;101431.00;5072174;28;20364;-51
2022/08/18 07:28:43;;;;;;;63.22;7.38;;;;;;;26.97;42.68;101433.63;5072125;28;20032;-51
2022/08/18 07:31:31;;;;;;;51.45;7.75;;;;;;;27.00;42.47;101433.63;5071859;28;20104;-50
2022/08/18 07:34:05;;;;;;;34.70;6.32;;;;;;;26.96;42.78;101431.88;5062874;28;20041;-51
2022/08/18 07:36:40;;;;;;;35.23;6.93;;;;;;;27.01;42.76;101440.66;5054601;28;20031;-50
2022/08/18 07:39:21;;;;;;;35.60;6.10;;;;;;;27.02;42.72;101437.16;5072200;28;20331;-49
2022/08/18 07:41:56;;;;;;;24.23;5.32;;;;;;;27.02;42.53;101436.28;5054500;28;20115;-48
2022/08/18 07:45:00;;;;;;;26.05;4.70;;;;;;;27.12;42.17;101441.63;5071697;28;20020;-48
2022/08/18 07:47:34;;;;;;;23.75;5.20;;;;;;;27.22;42.12;101454.88;5051075;28;20048;-49
2022/08/18 07:50:04;;;;;;;28.20;5.60;;;;;;;27.21;42.20;101461.00;5071734;28;20028;-48
2022/08/18 07:52:41;;;;;;;20.58;4.28;;;;;;;27.17;42.21;101452.19;5054239;28;20028;-54
2022/08/18 07:55:38;;;;;;;19.85;4.68;;;;;;;27.12;42.57;101461.81;5053808;28;20411;-56
2022/08/18 07:58:25;;;;;;;18.98;4.47;;;;;;;27.08;42.91;101462.66;5048024;28;20044;-56
2022/08/18 08:00:55;;;;;;;17.90;4.07;;;;;;;27.10;42.58;101466.19;5052499;28;20041;-56
2022/08/18 08:03:44;;;;;;;15.30;4.22;;;;;;;27.07;42.91;101471.41;5040336;28;20056;-49
2022/08/18 08:06:33;;;;;;;9.95;3.47;;;;;;;27.24;42.70;101476.81;5056518;28;20025;-51
2022/08/18 08:09:00;;;;;;;14.25;3.67;;;;;;;27.21;42.75;101475.06;5061407;28;20032;-52
2022/08/18 08:11:56;;;;;;;9.63;3.40;;;;;;;27.16;43.23;101479.41;5040957;28;20017;-53
2022/08/18 08:14:39;;;;;;;7.53;3.50;;;;;;;27.10;43.37;101481.97;5038898;28;20126;-53
2022/08/18 08:17:33;;;;;;;17.38;4.18;;;;;;;27.17;43.35;101481.19;5060582;28;20102;-52
2022/08/18 08:20:24;;;;;;;10.85;3.63;;;;;;;27.20;43.13;101486.47;5041102;28;20036;-51
2022/08/18 08:23:21;;;;;;;5.60;3.30;;;;;;;27.19;43.06;101486.44;5061057;28;20073;-49
2022/08/18 08:26:08;;;;;;;9.55;3.85;;;;;;;27.17;43.01;101481.19;5055993;28;20439;-52
2022/08/18 08:28:51;;;;;;;7.80;3.38;;;;;;;27.18;43.06;101490.84;5056352;28;20040;-51
2022/08/18 08:31:30;;;;;;;6.43;3.22;;;;;;;27.15;42.87;101493.44;5035502;28;20025;-52
2022/08/18 08:34:09;;;;;;;5.95;2.88;;;;;;;27.17;42.71;101501.34;5038086;28;20040;-50
2022/08/18 08:36:41;;;;;;;9.63;3.28;;;;;;;27.15;42.95;101493.44;5037739;28;20025;-50
2022/08/18 08:39:14;;;;;;;11.43;3.85;;;;;;;27.09;42.91;101496.00;5055397;28;20080;-49
2022/08/18 08:41:49;;;;;;;6.40;3.38;;;;;;;27.18;42.65;101498.75;5055619;28;20033;-49
2022/08/18 08:44:40;;;;;;;12.10;3.97;;;;;;;27.14;43.16;101499.56;5037629;28;20094;-47
2022/08/18 08:47:15;;;;;;;10.55;3.95;;;;;;;27.20;43.34;101494.38;5049414;28;20075;-50
2022/08/18 08:49:49;;;;;;;12.07;4.05;;;;;;;27.19;43.90;101499.59;5037694;28;20469;-49
2022/08/18 08:52:27;;;;;;;10.05;4.53;;;;;;;27.15;44.31;101496.94;5037418;28;20128;-49
2022/08/18 08:54:57;;;;;;;6.97;3.78;;;;;;;27.29;43.97;101506.72;5037416;28;20045;-48
2022/08/18 08:57:33;;;;;;;8.93;4.40;;;;;;;27.21;43.95;101501.41;5054991;28;20025;-48
2022/08/18 09:00:03;;;;;;;10.05;3.65;;;;;;;27.20;43.99;101504.91;5037738;28;20029;-48
2022/08/18 09:02:58;;;;;;;8.02;3.92;;;;;;;27.29;43.56;101504.09;5055300;28;20518;-48
2022/08/18 09:05:30;;;;;;;6.57;3.80;;;;;;;27.28;43.39;101512.88;5034186;28;20056;-50
2022/08/18 09:08:20;;;;;;;8.90;3.72;;;;;;;27.33;43.22;101532.19;5021002;28;20087;-49
2022/08/18 09:11:12;;;;;;;8.57;3.45;;;;;;;27.40;43.11;101530.50;5037401;28;20037;-48
2022/08/18 09:14:04;;;;;;;10.75;3.40;;;;;;;27.37;43.12;101528.72;5051904;28;20043;-50
2022/08/18 09:17:01;;;;;;;8.32;3.08;;;;;;;27.38;42.88;101534.91;5056537;28;20048;-48
2022/08/18 09:20:07;;;;;;;7.93;3.00;;;;;;;27.38;43.13;101537.53;5056313;28;20044;-49
2022/08/18 09:22:38;;;;;;;8.70;2.92;;;;;;;27.43;42.61;101528.78;5062775;28;20032;-49
2022/08/18 09:25:11;;;;;;;7.82;2.67;;;;;;;27.46;42.72;101527.09;5046666;28;20032;-48
2022/08/18 09:27:44;;;;;;;6.40;2.88;;;;;;;27.38;42.74;101524.34;5049358;28;20044;-48
2022/08/18 09:30:50;;;;;;;5.53;2.53;;;;;;;27.43;42.67;101534.06;5064323;28;20020;-52
2022/08/18 09:33:23;;;;;;;;;;;;;;;27.43;42.70;101527.88;5054952;28;20451;-52
2022/08/18 09:35:57;;;;;;;7.47;2.55;;;;;;;27.40;42.72;101535.75;5064313;28;19995;-51
2022/08/18 09:41:30;;;;;;;8.00;2.22;;;;;;;27.34;42.66;101528.69;5034937;28;20040;-50
2022/08/18 09:44:09;;;;;;;5.00;2.10;;;;;;;27.43;42.56;101535.78;5036817;28;20052;-51
2022/08/18 09:46:46;;;;;;;4.70;2.20;;;;;;;27.37;42.65;101539.25;5053892;28;20040;-53
2022/08/18 09:49:24;;;;;;;6.90;2.05;;;;;;;27.29;42.57;101538.34;5071140;28;20093;-53
2022/08/18 09:51:52;;;;;;;4.22;2.00;;;;;;;27.23;42.86;101540.91;5061872;28;20139;-52
2022/08/18 09:54:23;;;;;;;5.85;2.10;;;;;;;27.18;42.87;101526.81;5062009;28;20070;-52
2022/08/18 09:56:50;;;;;;;9.18;1.73;;;;;;;27.24;42.91;101540.91;5041174;28;20032;-52
2022/08/18 09:59:37;;;;;;;8.27;2.40;;;;;;;27.20;42.85;101539.16;5059927;28;20024;-50
2022/08/18 10:02:34;;;;;;;4.43;1.98;;;;;;;27.33;42.69;101541.88;5057178;28;20154;-52
2022/08/18 10:05:25;;;;;;;7.70;2.30;;;;;;;27.41;42.43;101538.44;5058670;28;20028;-53
2022/08/18 10:08:11;;;;;;;4.18;1.60;;;;;;;27.50;42.18;101545.56;5064385;28;20029;-53
2022/08/18 10:10:53;;;;;;;6.63;2.33;;;;;;;27.39;42.54;101544.53;5054563;28;20507;-49
2022/08/18 10:13:42;;;;;;;9.38;2.08;;;;;;;27.32;42.69;101538.34;5058337;28;20032;-54
2022/08/18 10:16:48;;;;;;;5.57;1.92;;;;;;;27.28;42.88;101541.84;5038248;28;20063;-49
2022/08/18 10:19:53;;;;;;;7.28;2.00;;;;;;;27.32;42.82;101538.34;5065141;28;20028;-54
2022/08/18 10:22:37;;;;;;;5.93;2.33;;;;;;;27.40;42.67;101541.03;5052425;28;20041;-55
2022/08/18 10:25:07;;;;;;;5.95;2.20;;;;;;;27.38;42.63;101541.03;5056946;28;20035;-52
2022/08/18 10:27:49;;;;;;;2.63;1.60;;;;;;;27.28;42.53;101532.19;5058910;28;20040;-53
2022/08/18 10:30:35;;;;;;;3.63;1.70;;;;;;;27.33;42.80;101531.34;5063266;28;20099;-55
2022/08/18 10:33:06;;;;;;;4.90;1.92;;;;;;;27.33;42.70;101529.56;5061751;28;20131;-54
2022/08/18 10:35:35;;;;;;;3.25;1.60;;;;;;;27.30;42.80;101525.16;5044155;28;20016;-49
2022/08/18 10:38:12;;;;;;;4.22;1.92;;;;;;;27.39;42.53;101524.34;5061839;28;20421;-50
2022/08/18 10:40:42;;;;;;;4.30;1.70;;;;;;;27.52;42.36;101514.81;5063799;28;20060;-53
2022/08/18 10:43:31;;;;;;;6.03;2.08;;;;;;;27.50;42.17;101528.84;5042679;28;20025;-49
2022/08/18 10:45:59;;;;;;;3.53;1.50;;;;;;;27.54;41.94;101523.63;5055639;28;20127;-50
2022/08/18 10:48:31;;;;;;;7.25;1.70;;;;;;;27.67;41.59;101532.47;5044665;28;20025;-51
2022/08/18 10:51:21;;;;;;;3.40;1.58;;;;;;;27.64;41.66;101532.44;5063887;28;20024;-51
2022/08/18 10:53:55;;;;;;;3.08;1.52;;;;;;;27.63;41.57;101535.97;5053899;28;20454;-53
2022/08/18 10:56:42;;;;;;;3.30;1.57;;;;;;;27.60;41.69;101535.97;5045402;28;20037;-50
2022/08/18 10:59:48;;;;;;;10.55;1.63;;;;;;;27.56;41.89;101542.06;5062372;28;20262;-54
2022/08/18 11:02:35;;;;;;;;;;;;;;;27.69;41.52;101532.50;5058354;28;20033;-50
2022/08/18 11:05:07;;;;;;;3.00;1.85;;;;;;;27.70;41.52;101536.91;5059433;28;19912;-49
2022/08/18 11:07:37;;;;;;;4.43;1.85;;;;;;;27.69;41.52;101545.69;5027360;28;20435;-52
2022/08/18 11:10:23;;;;;;;4.40;1.60;;;;;;;27.63;41.71;101540.34;5061542;28;20374;-52
2022/08/18 11:13:10;;;;;;;3.25;1.60;;;;;;;27.62;41.75;101538.59;5059963;28;20020;-49
2022/08/18 11:15:42;;;;;;;3.10;1.50;;;;;;;27.64;41.67;101539.50;5041975;28;20029;-52
2022/08/18 11:18:11;;;;;;;4.43;1.80;;;;;;;27.57;41.80;101538.56;5062024;28;20064;-49
2022/08/18 11:20:41;;;;;;;2.97;1.40;;;;;;;27.52;41.82;101540.28;5062529;28;20070;-52
2022/08/18 11:23:14;;;;;;;2.55;1.60;;;;;;;27.53;41.85;101534.13;5043639;28;20104;-50
2022/08/18 11:25:43;;;;;;;4.43;1.70;;;;;;;27.58;41.69;101530.66;5062562;28;20032;-51
2022/08/18 11:28:23;;;;;;;4.75;1.70;;;;;;;27.71;41.46;101539.53;5060791;28;20106;-52
2022/08/18 11:30:54;;;;;;;1.98;1.50;;;;;;;27.64;41.35;101527.19;5061946;28;20042;-52
2022/08/18 11:33:22;;;;;;;3.30;1.60;;;;;;;27.65;41.48;101533.34;5045289;28;20033;-50
2022/08/18 11:35:53;;;;;;;6.03;1.63;;;;;;;27.68;41.44;101517.56;5059696;28;20025;-52
2022/08/18 11:38:20;;;;;;;5.00;1.73;;;;;;;27.53;41.68;101508.69;5045172;28;20121;-53
2022/08/18 11:40:51;;;;;;;3.28;1.55;;;;;;;27.68;41.58;101525.47;5024906;28;20033;-53
2022/08/18 11:43:38;;;;;;;5.57;1.85;;;;;;;27.72;41.62;101529.84;5058616;28;20123;-53
2022/08/18 11:46:28;;;;;;;5.00;1.63;;;;;;;27.71;41.43;101529.00;5069445;28;20075;-51
2022/08/18 11:48:55;;;;;;;4.72;1.73;;;;;;;27.81;41.38;101529.03;5061942;28;20051;-53
2022/08/18 11:51:26;;;;;;;4.22;1.48;;;;;;;27.81;41.35;101539.56;5061221;28;20059;-52
2022/08/18 11:53:58;;;;;;;5.72;2.28;;;;;;;27.75;41.47;101538.69;5059025;28;20047;-49
2022/08/18 11:56:29;;;;;;;6.53;1.35;;;;;;;27.80;41.25;101543.13;5059616;28;20032;-53
2022/08/18 11:58:57;;;;;;;5.78;1.42;;;;;;;27.82;41.43;101536.06;5059374;28;20558;-49
2022/08/18 12:01:45;;;;;;;3.40;1.58;;;;;;;27.65;41.82;101549.16;5062729;28;20060;-49
2022/08/18 12:04:14;;;;;;;5.20;1.45;;;;;;;27.75;41.50;101551.88;5050629;28;20134;-51
2022/08/18 12:06:55;;;;;;;7.03;1.55;;;;;;;27.78;41.40;101547.50;5064093;28;20487;-49
2022/08/18 12:09:29;;;;;;;5.45;2.00;;;;;;;27.81;41.35;101544.84;5062530;28;20028;-49
2022/08/18 12:12:03;;;;;;;4.18;1.70;;;;;;;27.87;41.34;101545.78;5050330;28;20050;-50
2022/08/18 12:14:35;;;;;;;4.03;1.60;;;;;;;27.82;41.43;101554.53;5063184;28;20033;-49
2022/08/18 12:17:07;;;;;;;3.72;1.58;;;;;;;27.81;41.02;101537.84;5048115;28;20099;-49
2022/08/18 12:19:35;;;;;;;5.25;1.67;;;;;;;27.98;40.94;101545.81;5068039;28;20033;-49
2022/08/18 12:22:15;;;;;;;4.78;1.90;;;;;;;27.91;41.03;101551.97;5048723;28;20387;-51
2022/08/18 12:24:45;;;;;;;2.80;1.77;;;;;;;27.97;40.61;101549.34;5067982;28;20031;-48
2022/08/18 12:27:14;;;;;;;4.22;1.52;;;;;;;27.86;41.05;101538.75;5047928;28;20505;-53
2022/08/18 12:29:42;;;;;;;4.15;2.10;;;;;;;28.00;41.15;101541.44;5051140;28;20444;-53
2022/08/18 12:32:11;;;;;;;3.40;1.90;;;;;;;28.03;40.64;101532.69;5068549;28;20123;-51
2022/08/18 12:34:38;;;;;;;7.13;3.22;;;;;;;27.93;41.13;101530.84;5072824;28;20036;-53